CheckWX is a tool to help pilots better visualize weather data.  It is not intended as a substitute for an official pre-flight weather briefing.

22:12:06 UTC

MMUN TAF
Cancún International Airport
Cancún, Mexico
TAF MMUN 201657Z 2018/2124 05012KT P6SM BKN015 TX28/2020Z TN19/2112Z TEMPO 2018/2022 5SM RA SCT010CB FM210000 02010KT P6SM SKC FM211200 04010KT P6SM BKN015 FM212100 04010KT P6SM SCT015

Mar-20@
18:00 UTC

Mar-20 @ 18:00 UTC

Mar-21@
00:00 UTC

Mar-21 @ 00:00 UTC

TAF MMUN 201657Z 2018/2124 05012KT P6SM BKN015 TX28/2020Z TN19/2112Z
Wind
  • 050° at 12 KTS
Cloud Levels
  • Broken at 1,500' AGL

Mar-20@
18:00 UTC

Mar-20 @ 18:00 UTC

Mar-20@
22:00 UTC

Mar-20 @ 22:00 UTC

TEMPO 2018/2022 5SM RA SCT010CB

Expired

Conditions
Rain
Cloud Levels
  • Scattered at 1,000' AGL

Mar-21@
00:00 UTC

Mar-21 @ 00:00 UTC

Mar-21@
12:00 UTC

Mar-21 @ 12:00 UTC

FM210000 02010KT P6SM SKC

From

From Standard forecast or significant change

Wind
  • 020° at 10 KTS
Cloud Levels
  • Clear skies

Mar-21@
12:00 UTC

Mar-21 @ 12:00 UTC

Mar-21@
21:00 UTC

Mar-21 @ 21:00 UTC

FM211200 04010KT P6SM BKN015

From

From Standard forecast or significant change

Wind
  • 040° at 10 KTS
Cloud Levels
  • Broken at 1,500' AGL

Mar-21@
21:00 UTC

Mar-21 @ 21:00 UTC

Mar-22@
00:00 UTC

Mar-22 @ 00:00 UTC

FM212100 04010KT P6SM SCT015

From

From Standard forecast or significant change

Wind
  • 040° at 10 KTS
Cloud Levels
  • Scattered at 1,500' AGL